createdAt,value
2019-05-17T00:01:37.722Z,10.10
2019-05-17T00:04:09.109Z,10.10
2019-05-17T00:06:38.791Z,10.10
2019-05-17T00:09:09.807Z,10.00
2019-05-17T00:11:39.447Z,10.10
2019-05-17T00:14:09.054Z,10.10
2019-05-17T00:16:38.759Z,10.10
2019-05-17T00:19:08.118Z,10.10
2019-05-17T00:21:37.460Z,10.10
2019-05-17T00:24:06.920Z,10.10
2019-05-17T00:26:39.313Z,10.00
2019-05-17T00:29:07.861Z,10.00
2019-05-17T00:31:37.636Z,10.00
2019-05-17T00:34:07.476Z,10.00
2019-05-17T00:36:37.567Z,10.00
2019-05-17T00:39:07.687Z,10.00
2019-05-17T00:41:37.654Z,10.00
2019-05-17T00:44:07.102Z,10.00
2019-05-17T00:46:37.360Z,9.90
2019-05-17T00:49:07.161Z,9.90
2019-05-17T00:51:37.060Z,9.90
2019-05-17T00:54:11.240Z,9.90
2019-05-17T00:56:40.782Z,9.90
2019-05-17T00:59:10.264Z,9.90
2019-05-17T01:01:39.765Z,9.90
2019-05-17T01:04:09.451Z,9.90
2019-05-17T01:06:39.306Z,9.90
2019-05-17T01:09:09.249Z,9.90
2019-05-17T01:11:39.164Z,9.80
2019-05-17T01:14:08.645Z,9.80
2019-05-17T01:16:38.258Z,9.80
2019-05-17T01:19:08.043Z,9.80
2019-05-17T01:21:37.564Z,9.80
2019-05-17T01:24:07.253Z,9.80
2019-05-17T01:26:37.409Z,9.70
2019-05-17T01:29:07.054Z,9.70
2019-05-17T01:31:37.303Z,9.70
2019-05-17T01:34:07.649Z,9.70
2019-05-17T01:36:37.255Z,9.70
2019-05-17T01:39:17.036Z,9.70
2019-05-17T01:41:39.616Z,9.70
2019-05-17T01:44:09.109Z,9.70
2019-05-17T01:46:38.615Z,9.70
2019-05-17T01:49:08.196Z,9.60
2019-05-17T01:51:37.644Z,9.60
2019-05-17T01:54:07.091Z,9.60
2019-05-17T01:56:37.075Z,9.60
2019-05-17T01:59:06.988Z,9.60
2019-05-17T02:01:37.259Z,9.50
2019-05-17T02:04:06.733Z,9.50
2019-05-17T02:06:37.546Z,9.50
2019-05-17T02:09:07.413Z,9.50
2019-05-17T02:11:37.605Z,9.50
2019-05-17T02:14:07.487Z,9.40
2019-05-17T02:16:37.665Z,9.40
2019-05-17T02:19:07.630Z,9.40
2019-05-17T02:21:39.140Z,9.40
2019-05-17T02:24:08.798Z,9.40
2019-05-17T02:26:40.289Z,9.30
2019-05-17T02:29:14.824Z,9.30
2019-05-17T02:31:44.472Z,9.30
2019-05-17T02:34:15.470Z,9.30
2019-05-17T02:36:45.661Z,9.30
2019-05-17T02:39:16.006Z,9.20
2019-05-17T02:41:44.404Z,9.20
2019-05-17T02:44:15.356Z,9.20
2019-05-17T02:46:46.656Z,9.20
2019-05-17T02:49:16.818Z,9.20
2019-05-17T02:51:52.557Z,9.10
2019-05-17T02:54:23.545Z,9.10
2019-05-17T02:56:53.865Z,9.10
2019-05-17T02:59:24.959Z,9.10
2019-05-17T03:01:55.861Z,9.10
2019-05-17T03:04:25.605Z,9.10
2019-05-17T03:06:55.488Z,9.10
2019-05-17T03:09:25.490Z,9.10
2019-05-17T03:12:03.321Z,9.10
2019-05-17T03:14:32.917Z,9.10
2019-05-17T03:17:22.720Z,9.10
2019-05-17T03:19:57.855Z,9.10
2019-05-17T03:22:27.402Z,9.00
2019-05-17T03:24:56.819Z,9.10
2019-05-17T03:27:26.248Z,9.10
2019-05-17T03:29:55.695Z,9.00
2019-05-17T03:32:27.212Z,9.00
2019-05-17T03:34:57.232Z,9.00
2019-05-17T03:37:36.391Z,9.10
2019-05-17T03:40:02.709Z,9.00
2019-05-17T03:42:33.142Z,9.00
2019-05-17T03:45:03.213Z,9.00
2019-05-17T03:47:33.604Z,9.00
2019-05-17T03:50:03.541Z,9.00
2019-05-17T03:52:33.292Z,9.00
2019-05-17T03:55:04.223Z,9.00
2019-05-17T03:57:36.630Z,8.90
2019-05-17T04:00:07.036Z,8.90
2019-05-17T04:02:36.380Z,8.90
2019-05-17T04:05:06.272Z,8.90
2019-05-17T04:07:35.833Z,8.90
2019-05-17T04:10:05.818Z,8.90
2019-05-17T04:12:35.356Z,8.90
2019-05-17T04:15:05.141Z,8.90
2019-05-17T04:17:34.570Z,9.00
2019-05-17T04:20:07.659Z,9.00
2019-05-17T04:22:37.078Z,9.00
2019-05-17T04:25:06.682Z,9.00
2019-05-17T04:27:36.261Z,9.00
2019-05-17T04:30:08.665Z,9.00
2019-05-17T04:32:37.813Z,9.00
2019-05-17T04:35:07.439Z,8.90
2019-05-17T04:37:38.610Z,8.90
2019-05-17T04:40:13.630Z,8.90
2019-05-17T04:42:43.866Z,8.90
2019-05-17T04:45:12.673Z,8.90
2019-05-17T04:47:44.409Z,8.90
2019-05-17T04:50:14.278Z,8.90
2019-05-17T04:52:44.216Z,8.90
2019-05-17T04:55:14.148Z,8.90
2019-05-17T04:57:44.407Z,8.90
2019-05-17T05:00:14.805Z,8.90
2019-05-17T05:02:44.463Z,8.90
2019-05-17T05:05:14.566Z,8.90
2019-05-17T05:07:44.105Z,8.90
2019-05-17T05:10:14.382Z,8.90
2019-05-17T05:12:44.372Z,9.00
2019-05-17T05:15:14.189Z,9.00
2019-05-17T05:17:43.675Z,9.00
2019-05-17T05:20:13.687Z,9.10
2019-05-17T05:22:42.879Z,9.10
2019-05-17T05:25:12.918Z,9.10
2019-05-17T05:27:42.988Z,9.10
2019-05-17T05:30:12.353Z,9.20
2019-05-17T05:32:42.827Z,9.20
2019-05-17T05:35:12.773Z,9.30
2019-05-17T05:37:48.817Z,9.30
2019-05-17T05:40:18.240Z,9.30
2019-05-17T05:42:47.816Z,9.30
2019-05-17T05:45:17.460Z,9.40
2019-05-17T05:47:46.860Z,9.40
2019-05-17T05:50:17.710Z,9.40
2019-05-17T05:52:49.115Z,9.50
2019-05-17T05:55:18.472Z,9.50
2019-05-17T05:57:47.765Z,9.50
2019-05-17T06:00:18.835Z,9.60
2019-05-17T06:02:48.296Z,9.60
2019-05-17T06:05:18.114Z,9.70
2019-05-17T06:07:52.095Z,9.70
2019-05-17T06:10:21.857Z,9.70
2019-05-17T06:12:51.775Z,9.80
2019-05-17T06:15:21.933Z,9.80
2019-05-17T06:17:52.027Z,9.90
2019-05-17T06:20:22.410Z,9.90
2019-05-17T06:22:51.974Z,10.00
2019-05-17T06:25:23.364Z,10.00
2019-05-17T06:27:52.463Z,10.00
2019-05-17T06:30:22.126Z,10.00
2019-05-17T06:32:51.852Z,10.10
2019-05-17T06:35:21.784Z,10.10
2019-05-17T06:37:53.540Z,10.20
2019-05-17T06:40:23.133Z,10.20
2019-05-17T06:42:52.626Z,10.20
2019-05-17T06:45:22.348Z,10.20
2019-05-17T06:47:52.159Z,10.30
2019-05-17T06:50:23.455Z,10.30
2019-05-17T06:52:53.251Z,10.40
2019-05-17T06:55:24.206Z,10.40
2019-05-17T06:57:52.882Z,10.50
2019-05-17T07:00:23.913Z,10.50
2019-05-17T07:02:53.225Z,10.50
2019-05-17T07:05:26.439Z,10.60
2019-05-17T07:07:55.764Z,10.60
2019-05-17T07:10:25.102Z,10.70
2019-05-17T07:12:58.756Z,10.70
2019-05-17T07:15:25.720Z,10.80
2019-05-17T07:17:54.991Z,10.80
2019-05-17T07:20:24.255Z,10.90
2019-05-17T07:22:53.614Z,10.90
2019-05-17T07:25:23.028Z,11.00
2019-05-17T07:27:52.395Z,11.00
2019-05-17T07:30:23.402Z,11.10
2019-05-17T07:32:53.005Z,11.10
2019-05-17T07:35:22.483Z,11.20
2019-05-17T07:37:52.657Z,11.20
2019-05-17T07:40:22.476Z,11.30
2019-05-17T07:42:51.925Z,11.30
2019-05-17T07:45:21.357Z,11.40
2019-05-17T07:47:50.675Z,11.40
2019-05-17T07:50:20.207Z,11.50
2019-05-17T07:52:50.012Z,11.50
2019-05-17T07:55:22.889Z,11.50
2019-05-17T07:57:50.314Z,11.60
2019-05-17T08:00:20.209Z,11.70
2019-05-17T08:02:50.490Z,11.70
2019-05-17T08:05:21.356Z,11.80
2019-05-17T08:07:51.047Z,11.80
2019-05-17T08:10:40.944Z,11.90
2019-05-17T08:13:25.212Z,11.90
2019-05-17T08:15:41.384Z,11.90
2019-05-17T08:18:11.240Z,12.00
2019-05-17T08:20:40.681Z,12.00
2019-05-17T08:23:10.841Z,12.10
2019-05-17T08:25:52.038Z,12.20
2019-05-17T08:28:11.131Z,12.20
2019-05-17T08:30:41.295Z,12.20
2019-05-17T08:33:11.323Z,12.30
2019-05-17T08:35:41.024Z,12.40
2019-05-17T08:38:10.722Z,12.40
2019-05-17T08:40:41.604Z,12.50
2019-05-17T08:43:11.031Z,12.50
2019-05-17T08:45:40.962Z,12.60
2019-05-17T08:48:09.710Z,12.70
2019-05-17T08:50:40.247Z,12.70
2019-05-17T08:53:12.431Z,12.70
2019-05-17T08:55:44.164Z,12.80
2019-05-17T11:15:11.522Z,15.50
2019-05-17T11:17:39.884Z,15.50
2019-05-17T11:20:10.008Z,15.50
2019-05-17T11:22:39.272Z,15.50
2019-05-17T11:25:09.785Z,15.60
2019-05-17T11:41:51.511Z,16.00
2019-05-17T11:44:20.761Z,16.00
2019-05-17T11:46:50.739Z,16.00
2019-05-17T11:49:20.413Z,16.10
2019-05-17T11:51:50.003Z,16.10
2019-05-17T11:54:19.761Z,16.20
2019-05-17T11:56:49.399Z,16.20
2019-05-17T11:59:18.948Z,16.20
2019-05-17T12:01:48.649Z,16.20
2019-05-17T12:04:18.397Z,16.30
2019-05-17T12:06:47.749Z,16.30
2019-05-17T12:09:20.168Z,16.30
2019-05-17T12:11:49.808Z,16.40
2019-05-17T12:14:19.330Z,16.40
2019-05-17T12:16:48.973Z,16.40
2019-05-17T12:19:18.494Z,16.50
2019-05-17T12:21:48.373Z,16.50
2019-05-17T12:24:18.129Z,16.60
2019-05-17T12:26:48.001Z,16.60
2019-05-17T12:29:17.577Z,16.70
2019-05-17T12:31:50.286Z,16.80
2019-05-17T12:34:20.012Z,16.80
2019-05-17T12:36:50.252Z,16.80
2019-05-17T12:39:22.591Z,16.80
2019-05-17T12:41:52.321Z,16.90
2019-05-17T12:44:24.102Z,16.90
2019-05-17T12:46:54.114Z,17.00
2019-05-17T12:49:22.503Z,16.90
2019-05-17T12:51:52.297Z,17.00
2019-05-17T12:54:21.926Z,17.00
2019-05-17T12:56:51.698Z,16.90
2019-05-17T12:59:21.757Z,16.90
2019-05-17T13:01:50.414Z,16.90
2019-05-17T13:04:20.314Z,17.00
2019-05-17T13:06:49.944Z,17.00
2019-05-17T13:09:19.634Z,17.00
2019-05-17T13:11:49.215Z,17.00
2019-05-17T13:14:18.892Z,17.00
2019-05-17T13:16:48.636Z,17.00
2019-05-17T13:19:18.563Z,17.00
2019-05-17T13:21:47.361Z,17.00
2019-05-17T13:24:16.959Z,17.00
2019-05-17T13:26:46.535Z,17.00
2019-05-17T13:29:16.039Z,17.00
2019-05-17T13:31:45.704Z,17.00
2019-05-17T13:34:15.312Z,17.10
2019-05-17T13:36:46.945Z,17.00
2019-05-17T13:39:16.574Z,17.10
2019-05-17T13:41:46.132Z,17.10
2019-05-17T13:44:15.947Z,17.10
2019-05-17T13:46:48.160Z,17.10
2019-05-17T13:49:18.469Z,17.20
2019-05-17T13:51:48.244Z,17.20
2019-05-17T13:54:18.426Z,17.30
2019-05-17T13:56:49.842Z,17.30
2019-05-17T13:59:19.385Z,17.30
2019-05-17T14:01:49.291Z,17.40
2019-05-17T14:04:18.982Z,17.40
2019-05-17T14:06:48.483Z,17.50
2019-05-17T14:09:18.250Z,17.50
2019-05-17T14:11:48.128Z,17.50
2019-05-17T14:14:20.352Z,17.60
2019-05-17T14:16:50.050Z,17.70
2019-05-17T14:19:19.967Z,17.80
2019-05-17T14:21:49.569Z,17.90
2019-05-17T14:24:19.523Z,18.00
2019-05-17T14:26:48.111Z,18.10
2019-05-17T14:29:17.696Z,18.20
2019-05-17T14:31:47.379Z,18.30
2019-05-17T14:34:17.087Z,18.40
2019-05-17T14:36:49.429Z,18.60
2019-05-17T14:39:19.171Z,18.70
2019-05-17T14:41:48.710Z,18.70
2019-05-17T14:44:18.264Z,18.90
2019-05-17T14:47:00.757Z,18.90
2019-05-17T14:49:33.947Z,19.00
2019-05-17T14:52:19.622Z,19.10
2019-05-17T14:54:50.784Z,19.10
2019-05-17T14:57:20.367Z,19.20
2019-05-17T14:59:50.503Z,19.30
2019-05-17T15:02:20.231Z,19.30
2019-05-17T15:04:52.786Z,19.30
2019-05-17T15:07:22.661Z,19.40
2019-05-17T15:09:53.196Z,19.40
2019-05-17T15:12:28.796Z,19.50
2019-05-17T15:14:59.208Z,19.50
2019-05-17T15:17:29.123Z,19.50
2019-05-17T15:19:59.076Z,19.50
2019-05-17T15:22:27.908Z,19.50
2019-05-17T15:24:57.926Z,19.60
2019-05-17T15:27:28.044Z,19.60
2019-05-17T15:29:57.993Z,19.60
2019-05-17T15:32:26.763Z,19.70
2019-05-17T15:34:56.683Z,19.70
2019-05-17T15:37:25.503Z,19.70
2019-05-17T15:39:56.415Z,19.80
2019-05-17T15:42:26.093Z,19.70
2019-05-17T15:44:55.326Z,19.80
2019-05-17T15:47:24.924Z,19.80
2019-05-17T15:49:54.375Z,19.70
2019-05-17T15:52:23.904Z,19.70
2019-05-17T15:54:53.835Z,19.70
2019-05-17T15:57:23.403Z,19.60
2019-05-17T15:59:52.901Z,19.50
2019-05-17T16:02:22.683Z,19.50
2019-05-17T16:04:52.621Z,19.50
2019-05-17T16:07:21.159Z,19.50
2019-05-17T16:09:51.062Z,19.50
2019-05-17T16:12:19.742Z,19.30
2019-05-17T16:14:49.557Z,19.30
2019-05-17T16:17:19.399Z,19.10
2019-05-17T16:19:48.061Z,19.10
2019-05-17T16:22:17.657Z,19.10
2019-05-17T16:24:47.277Z,19.10
2019-05-17T16:27:17.034Z,19.00
2019-05-17T16:29:46.572Z,19.00
2019-05-17T16:32:16.186Z,18.90
2019-05-17T16:34:45.877Z,18.90
2019-05-17T16:37:15.468Z,18.90
2019-05-17T16:39:45.163Z,18.80
2019-05-17T16:42:14.883Z,18.80
2019-05-17T16:44:46.591Z,18.80
2019-05-17T16:47:20.105Z,18.80
2019-05-17T16:49:49.944Z,18.70
2019-05-17T16:52:19.624Z,18.70
2019-05-17T16:54:49.375Z,18.70
2019-05-17T16:57:19.134Z,18.60
2019-05-17T16:59:49.225Z,18.70
2019-05-17T17:02:23.123Z,18.70
2019-05-17T17:05:01.933Z,18.70
2019-05-17T17:07:51.969Z,18.60
2019-05-17T17:10:29.833Z,18.60
2019-05-17T17:13:33.115Z,18.60
2019-05-17T17:16:15.517Z,18.60
2019-05-17T17:18:51.811Z,18.40
2019-05-17T17:21:53.636Z,18.40
2019-05-17T17:24:25.738Z,18.40
2019-05-17T17:27:08.605Z,18.30
2019-05-17T17:29:41.243Z,18.30
2019-05-17T17:32:21.465Z,18.30
2019-05-17T17:35:17.757Z,18.30
2019-05-17T17:38:14.905Z,18.30
2019-05-17T17:41:53.445Z,18.20
2019-05-17T17:44:25.502Z,18.10
2019-05-17T17:47:52.383Z,18.10
2019-05-17T17:50:30.007Z,18.10
2019-05-17T17:53:03.006Z,18.00
2019-05-17T17:55:36.938Z,18.00
2019-05-17T17:58:07.867Z,18.00
2019-05-17T18:00:40.526Z,18.00
2019-05-17T18:03:20.649Z,17.90
2019-05-17T18:06:21.896Z,17.90
2019-05-17T18:08:54.360Z,17.90
2019-05-17T18:11:47.566Z,17.80
2019-05-17T18:14:19.632Z,17.80
2019-05-17T18:16:49.389Z,17.70
2019-05-17T18:19:19.664Z,17.70
2019-05-17T18:21:49.324Z,17.70
2019-05-17T18:24:19.004Z,17.70
2019-05-17T18:26:57.905Z,17.70
2019-05-17T18:29:32.388Z,17.70
2019-05-17T18:32:01.978Z,17.60
2019-05-17T18:34:31.640Z,17.60
2019-05-17T18:37:02.751Z,17.60
2019-05-17T18:39:34.310Z,17.50
2019-05-17T18:42:05.424Z,17.50
2019-05-17T18:44:35.024Z,17.50
2019-05-17T18:47:04.498Z,17.40
2019-05-17T18:49:34.107Z,17.40
2019-05-17T18:52:03.958Z,17.40
2019-05-17T18:54:33.510Z,17.30
2019-05-17T18:57:03.085Z,17.30
2019-05-17T18:59:33.969Z,17.20
2019-05-17T19:02:20.007Z,17.20
2019-05-17T19:04:50.745Z,17.10
2019-05-17T19:07:24.586Z,17.10
2019-05-17T19:09:54.034Z,17.00
2019-05-17T19:12:26.623Z,17.00
2019-05-17T19:14:56.345Z,17.00
2019-05-17T19:17:26.924Z,17.00
2019-05-17T19:20:08.072Z,17.00
2019-05-17T19:23:04.591Z,16.90
2019-05-17T19:26:00.265Z,16.90
2019-05-17T19:28:35.657Z,16.90
2019-05-17T19:31:14.529Z,16.90
2019-05-17T19:33:50.225Z,16.80
2019-05-17T19:36:21.454Z,16.80
2019-05-17T19:39:11.980Z,16.70
2019-05-17T19:41:41.973Z,16.70
2019-05-17T19:44:11.742Z,16.70
2019-05-17T19:46:41.418Z,16.70
2019-05-17T19:49:11.604Z,16.60
2019-05-17T19:51:41.560Z,16.60
2019-05-17T19:54:11.976Z,16.60
2019-05-17T19:56:44.068Z,16.60
2019-05-17T19:59:13.277Z,16.50
2019-05-17T20:01:42.715Z,16.50
2019-05-17T20:04:12.189Z,16.50
2019-05-17T20:06:41.583Z,16.50
2019-05-17T20:09:10.966Z,16.40
2019-05-17T20:11:40.401Z,16.40
2019-05-17T20:14:09.631Z,16.40
2019-05-17T20:16:38.941Z,16.40
2019-05-17T20:19:08.306Z,16.40
2019-05-17T20:21:37.712Z,16.30
2019-05-17T20:24:06.902Z,16.30
2019-05-17T20:26:36.254Z,16.30
2019-05-17T20:29:05.608Z,16.30
2019-05-17T20:31:34.995Z,16.30
2019-05-17T20:34:04.330Z,16.30
2019-05-17T20:36:36.467Z,16.30
2019-05-17T20:39:07.674Z,16.30
2019-05-17T20:41:37.005Z,16.30
2019-05-17T20:44:07.120Z,16.20
2019-05-17T20:46:38.333Z,16.20
2019-05-17T20:49:07.797Z,16.20
2019-05-17T20:51:37.538Z,16.20
2019-05-17T20:54:07.251Z,16.10
2019-05-17T20:56:36.616Z,16.10
2019-05-17T20:59:06.329Z,16.00
2019-05-17T21:01:35.909Z,16.00
2019-05-17T21:04:05.282Z,16.00
2019-05-17T21:06:34.790Z,16.00
2019-05-17T21:09:05.153Z,16.00
2019-05-17T21:11:39.377Z,16.00
2019-05-17T21:14:08.818Z,16.00
2019-05-17T21:16:38.309Z,15.90
2019-05-17T21:19:07.649Z,15.90
2019-05-17T21:21:37.034Z,15.90
2019-05-17T21:24:06.475Z,15.90
2019-05-17T21:26:35.786Z,15.80
2019-05-17T21:29:05.218Z,15.80
2019-05-17T21:31:35.115Z,15.80
2019-05-17T21:34:04.448Z,15.80
2019-05-17T21:36:33.941Z,15.80
2019-05-17T21:39:04.143Z,15.80
2019-05-17T21:41:33.526Z,15.70
2019-05-17T21:44:02.906Z,15.70
2019-05-17T21:46:32.600Z,15.70
2019-05-17T21:49:02.522Z,15.70
2019-05-17T21:51:32.629Z,15.70
2019-05-17T21:54:01.082Z,15.70
2019-05-17T21:56:30.627Z,15.60
2019-05-17T21:58:59.971Z,15.60
2019-05-17T22:01:32.122Z,15.60
2019-05-17T22:04:01.848Z,15.60
2019-05-17T22:06:31.794Z,15.60
2019-05-17T22:09:01.814Z,15.50
2019-05-17T22:11:33.681Z,15.50
2019-05-17T22:14:03.050Z,15.50
2019-05-17T22:16:32.545Z,15.50
2019-05-17T22:19:02.035Z,15.50
2019-05-17T22:21:31.869Z,15.40
2019-05-17T22:24:02.790Z,15.50
2019-05-17T22:26:32.545Z,15.40
2019-05-17T22:29:02.659Z,15.40
2019-05-17T22:31:30.842Z,15.40
2019-05-17T22:34:01.230Z,15.40
2019-05-17T22:36:30.872Z,15.40
2019-05-17T22:39:26.339Z,15.30
2019-05-17T22:41:55.843Z,15.30
2019-05-17T22:44:25.229Z,15.30
2019-05-17T22:46:54.654Z,15.30
2019-05-17T22:49:23.783Z,15.30
2019-05-17T22:51:53.022Z,15.20
2019-05-17T22:54:22.222Z,15.20
2019-05-17T22:56:51.874Z,15.20
2019-05-17T22:59:21.486Z,15.20
2019-05-17T23:01:51.492Z,15.20
2019-05-17T23:04:21.291Z,15.10
2019-05-17T23:06:50.816Z,15.10
2019-05-17T23:09:21.007Z,15.10
2019-05-17T23:11:49.863Z,15.10
2019-05-17T23:14:20.935Z,15.00
2019-05-17T23:16:52.231Z,15.00
2019-05-17T23:19:22.029Z,15.00
2019-05-17T23:21:51.977Z,15.00
2019-05-17T23:24:21.455Z,14.90
2019-05-17T23:26:50.850Z,14.90
2019-05-17T23:29:20.285Z,14.90
2019-05-17T23:31:49.672Z,14.90
2019-05-17T23:34:19.228Z,14.80
2019-05-17T23:36:49.311Z,14.90
2019-05-17T23:39:17.882Z,14.80
2019-05-17T23:41:47.531Z,14.80
2019-05-17T23:44:17.033Z,14.80
2019-05-17T23:46:46.745Z,14.80
2019-05-17T23:49:16.414Z,14.70
2019-05-17T23:51:45.997Z,14.70
2019-05-17T23:54:15.424Z,14.70
2019-05-17T23:56:45.013Z,14.70
2019-05-17T23:59:16.869Z,14.70
